Time;durP1;ratioP1;P1;durP2;ratioP2;P2;SDS_P1;SDS_P2;PMS_P1;PMS_P2;Temp;Humidity;BMP_temperature;BMP_pressure;BME280_temperature;BME280_humidity;BME280_pressure;Samples;Min_cycle;Max_cycle;Signal;HPM_P1;HPM_P2
2023/12/09 00:02:05;;;;;;;15.02;9.60;;;;;;;4.34;100.00;97173.47;5101353;28;20389;-82
2023/12/09 00:04:31;;;;;;;14.55;9.02;;;;;;;4.34;100.00;97172.69;5101683;28;20454;-81
2023/12/09 00:06:57;;;;;;;13.90;9.20;;;;;;;4.35;100.00;97171.66;5101403;28;20397;-80
2023/12/09 00:09:23;;;;;;;13.68;8.70;;;;;;;4.36;100.00;97174.03;5101244;28;20404;-80
2023/12/09 00:11:51;;;;;;;12.63;8.63;;;;;;;4.36;100.00;97170.66;5082998;28;20430;-80
2023/12/09 00:14:17;;;;;;;13.35;8.77;;;;;;;4.36;100.00;97181.13;5101469;28;20401;-80
2023/12/09 00:16:43;;;;;;;13.18;8.30;;;;;;;4.36;100.00;97181.13;5102945;28;20410;-80
2023/12/09 00:19:09;;;;;;;18.42;10.73;;;;;;;4.34;100.00;97176.09;5110862;28;20390;-80
2023/12/09 00:21:36;;;;;;;15.93;9.93;;;;;;;4.36;100.00;97181.13;5109515;28;20743;-80
2023/12/09 00:24:02;;;;;;;18.30;10.27;;;;;;;4.33;100.00;97177.13;5104638;28;20414;-80
2023/12/09 00:26:30;;;;;;;25.35;14.10;;;;;;;4.30;100.00;97180.16;5104279;28;20401;-81
2023/12/09 00:28:58;;;;;;;33.03;16.00;;;;;;;4.26;100.00;97176.38;5099847;28;20386;-79
2023/12/09 00:31:24;;;;;;;23.02;13.50;;;;;;;4.25;100.00;97183.44;5099740;28;20402;-80
2023/12/09 00:33:50;;;;;;;20.55;12.90;;;;;;;4.25;100.00;97182.63;5101216;28;20475;-80
2023/12/09 00:36:16;;;;;;;17.83;10.95;;;;;;;4.22;100.00;97178.59;5100267;28;20406;-80
2023/12/09 00:38:43;;;;;;;16.75;9.88;;;;;;;4.20;100.00;97178.03;5100611;28;20390;-81
2023/12/09 00:41:09;;;;;;;15.38;10.02;;;;;;;4.18;100.00;97174.03;5106089;28;20430;-80
2023/12/09 00:43:36;;;;;;;12.63;9.05;;;;;;;4.15;100.00;97174.44;5086351;28;20394;-82
2023/12/09 00:46:03;;;;;;;15.35;9.52;;;;;;;4.13;100.00;97182.53;5099821;28;20390;-79
2023/12/09 00:48:30;;;;;;;17.75;10.95;;;;;;;4.10;100.00;97182.97;5099948;28;20426;-79
2023/12/09 00:50:56;;;;;;;22.42;11.85;;;;;;;4.07;100.00;97170.28;5102471;28;20400;-79
2023/12/09 00:53:22;;;;;;;23.42;12.25;;;;;;;4.06;100.00;97166.06;5099350;28;20494;-79
2023/12/09 00:55:48;;;;;;;19.25;11.02;;;;;;;4.04;100.00;97162.88;5098879;28;20452;-80
2023/12/09 00:58:14;;;;;;;19.77;11.43;;;;;;;3.99;100.00;97170.56;5098649;28;20448;-79
2023/12/09 01:00:40;;;;;;;18.15;10.05;;;;;;;3.94;100.00;97177.44;5099101;28;20746;-80
2023/12/09 01:03:08;;;;;;;20.40;10.70;;;;;;;3.84;100.00;97183.97;5099637;28;20425;-80
2023/12/09 01:05:34;;;;;;;18.35;10.32;;;;;;;3.77;100.00;97185.84;5081175;28;20407;-80
2023/12/09 01:08:00;;;;;;;16.27;9.65;;;;;;;3.74;100.00;97190.72;5099075;28;20444;-80
2023/12/09 01:10:26;;;;;;;40.70;17.63;;;;;;;3.72;100.00;97193.53;5101241;28;20426;-80
2023/12/09 01:12:52;;;;;;;28.33;14.43;;;;;;;3.76;100.00;97196.53;5098871;28;20466;-79
2023/12/09 01:15:19;;;;;;;27.67;13.40;;;;;;;3.79;100.00;97204.75;5098809;28;20848;-80
2023/12/09 01:17:45;;;;;;;22.95;12.10;;;;;;;3.81;100.00;97210.59;5098253;28;20447;-80
2023/12/09 01:20:14;;;;;;;20.02;11.15;;;;;;;3.84;100.00;97210.16;5098683;28;20451;-80
2023/12/09 01:22:41;;;;;;;18.40;10.23;;;;;;;3.86;100.00;97213.34;5099063;28;20398;-82
2023/12/09 01:25:08;;;;;;;20.98;10.90;;;;;;;3.89;100.00;97212.94;5097956;28;20754;-80
2023/12/09 01:27:34;;;;;;;21.50;10.43;;;;;;;3.92;100.00;97214.31;5101446;28;20398;-81
2023/12/09 01:30:01;;;;;;;24.77;11.45;;;;;;;3.94;100.00;97214.13;5107099;28;20449;-80
2023/12/09 01:32:27;;;;;;;23.83;12.02;;;;;;;3.97;100.00;97218.94;5100688;28;20390;-81
2023/12/09 01:34:53;;;;;;;19.55;10.75;;;;;;;4.01;100.00;97212.25;5097451;28;20477;-81
2023/12/09 01:37:20;;;;;;;28.55;13.52;;;;;;;4.04;100.00;97217.06;5097923;28;20497;-81
2023/12/09 01:39:46;;;;;;;28.58;14.40;;;;;;;4.08;100.00;97215.63;5097004;28;20425;-81
2023/12/09 01:42:12;;;;;;;24.05;12.57;;;;;;;4.12;100.00;97220.22;5097442;28;20390;-80
2023/12/09 01:44:39;;;;;;;31.55;14.02;;;;;;;4.15;100.00;97230.25;5097758;28;20401;-80
2023/12/09 01:47:06;;;;;;;22.48;12.63;;;;;;;4.19;100.00;97241.13;5097775;28;20398;-82
2023/12/09 01:49:33;;;;;;;22.63;12.05;;;;;;;4.21;100.00;97242.50;5096903;28;20391;-82
2023/12/09 01:52:00;;;;;;;18.80;10.30;;;;;;;4.21;100.00;97245.13;5097000;28;20401;-81
2023/12/09 01:54:28;;;;;;;19.83;10.13;;;;;;;4.23;100.00;97242.28;5097695;28;20523;-82
2023/12/09 01:56:55;;;;;;;19.97;10.30;;;;;;;4.23;100.00;97243.09;5097431;28;20414;-80
2023/12/09 01:59:22;;;;;;;35.63;14.80;;;;;;;4.23;100.00;97244.91;5097453;28;20389;-81
2023/12/09 02:01:49;;;;;;;19.75;11.32;;;;;;;4.25;100.00;97253.38;5097710;28;20440;-81
2023/12/09 02:04:16;;;;;;;25.02;12.23;;;;;;;4.24;100.00;97247.31;5097417;28;20448;-81
2023/12/09 02:06:42;;;;;;;26.70;12.32;;;;;;;4.23;100.00;97258.81;5097266;28;20393;-83
2023/12/09 02:09:10;;;;;;;42.53;16.00;;;;;;;4.21;100.00;97252.97;5097450;28;20394;-80
2023/12/09 02:11:43;;;;;;;29.98;14.48;;;;;;;4.24;100.00;97259.63;5103267;28;20469;-80
2023/12/09 02:14:18;;;;;;;34.63;14.65;;;;;;;4.26;100.00;97260.22;5097670;28;20481;-80
2023/12/09 02:16:58;;;;;;;24.88;12.40;;;;;;;4.32;100.00;97250.69;5097270;28;20421;-81
2023/12/09 02:19:25;;;;;;;31.38;13.80;;;;;;;4.32;100.00;97256.72;5097027;28;20420;-81
2023/12/09 02:21:59;;;;;;;33.33;13.70;;;;;;;4.31;100.00;97249.88;5079134;28;20440;-80
2023/12/09 02:24:27;;;;;;;30.63;15.93;;;;;;;4.34;100.00;97246.03;5097047;28;20945;-80
2023/12/09 02:26:57;;;;;;;31.77;14.52;;;;;;;4.38;100.00;97245.38;5096985;28;20481;-81
2023/12/09 02:29:25;;;;;;;32.63;14.37;;;;;;;4.36;100.00;97239.56;5097344;28;20668;-81
2023/12/09 02:31:59;;;;;;;33.67;15.18;;;;;;;4.37;100.00;97228.06;5096999;28;20394;-80
2023/12/09 02:34:27;;;;;;;30.23;12.95;;;;;;;4.40;100.00;97232.88;5097375;28;20386;-81
2023/12/09 02:36:56;;;;;;;22.52;11.40;;;;;;;4.41;100.00;97226.63;5096766;28;20950;-80
2023/12/09 02:39:22;;;;;;;19.20;9.80;;;;;;;4.42;100.00;97224.81;5096149;28;20402;-80
2023/12/09 02:41:51;;;;;;;17.45;9.95;;;;;;;4.41;100.00;97224.00;5097580;28;20433;-81
2023/12/09 02:44:17;;;;;;;17.77;9.75;;;;;;;4.39;100.00;97220.78;5097734;28;20435;-81
2023/12/09 02:46:43;;;;;;;20.20;8.75;;;;;;;4.40;100.00;97222.41;5098614;28;20390;-80
2023/12/09 02:49:10;;;;;;;26.83;12.73;;;;;;;4.35;100.00;97214.38;5098655;28;20436;-80
2023/12/09 02:51:37;;;;;;;27.65;12.30;;;;;;;4.37;100.00;97211.53;5097979;28;20441;-82
2023/12/09 02:54:03;;;;;;;22.98;10.85;;;;;;;4.38;100.00;97218.38;5097503;28;20919;-80
2023/12/09 02:56:29;;;;;;;28.35;11.85;;;;;;;4.36;100.00;97215.19;5097021;28;20397;-80
2023/12/09 02:58:56;;;;;;;21.27;11.00;;;;;;;4.35;100.00;97203.91;5097511;28;20397;-81
2023/12/09 03:01:22;;;;;;;21.92;10.98;;;;;;;4.32;100.00;97199.09;5079162;28;20426;-80
2023/12/09 03:03:49;;;;;;;18.70;10.23;;;;;;;4.31;100.00;97186.19;5108681;28;20402;-79
2023/12/09 03:06:15;;;;;;;28.23;13.15;;;;;;;4.24;100.00;97175.78;5114813;28;20390;-82
2023/12/09 03:08:41;;;;;;;17.08;9.32;;;;;;;4.19;100.00;97173.81;5119126;28;20398;-81
2023/12/09 03:11:07;;;;;;;13.37;8.20;;;;;;;4.15;100.00;97171.81;5116920;28;20394;-81
2023/12/09 03:13:33;;;;;;;13.40;8.02;;;;;;;4.12;100.00;97178.31;5101904;28;20908;-80
2023/12/09 03:16:01;;;;;;;20.20;10.20;;;;;;;4.12;100.00;97182.75;5101387;28;20393;-80
2023/12/09 03:18:27;;;;;;;19.60;9.47;;;;;;;4.11;100.00;97174.09;5101688;28;20478;-80
2023/12/09 03:20:53;;;;;;;18.20;9.45;;;;;;;4.11;100.00;97173.28;5101765;28;20402;-79
2023/12/09 03:23:19;;;;;;;14.05;7.97;;;;;;;4.09;100.00;97164.84;5100689;28;20439;-80
2023/12/09 03:25:45;;;;;;;12.35;7.57;;;;;;;4.07;100.00;97166.84;5101485;28;20423;-80
2023/12/09 03:28:12;;;;;;;11.63;7.05;;;;;;;4.03;100.00;97155.22;5100927;28;20421;-79
2023/12/09 03:30:38;;;;;;;13.27;7.45;;;;;;;3.96;100.00;97157.09;5101364;28;20417;-81
2023/12/09 03:33:05;;;;;;;14.82;6.90;;;;;;;3.88;100.00;97155.56;5101020;28;20396;-80
2023/12/09 03:35:32;;;;;;;12.00;6.93;;;;;;;3.80;100.00;97163.66;5101204;28;20394;-80
2023/12/09 03:37:58;;;;;;;14.05;7.93;;;;;;;3.73;100.00;97165.53;5100735;28;20453;-79
2023/12/09 03:40:24;;;;;;;14.00;8.15;;;;;;;3.65;100.00;97157.94;5101291;28;20433;-79
2023/12/09 03:42:50;;;;;;;16.73;8.23;;;;;;;3.57;100.00;97158.19;5100996;28;20394;-79
2023/12/09 03:45:16;;;;;;;19.00;8.75;;;;;;;3.47;100.00;97156.84;5100818;28;20389;-79
2023/12/09 03:47:42;;;;;;;17.13;8.73;;;;;;;3.37;100.00;97156.53;5100551;28;20402;-79
2023/12/09 03:50:10;;;;;;;14.43;8.30;;;;;;;3.29;100.00;97155.97;5102622;28;20394;-79
2023/12/09 03:52:36;;;;;;;16.02;8.73;;;;;;;3.20;100.00;97149.38;5100246;28;20390;-81
2023/12/09 03:55:03;;;;;;;15.82;8.10;;;;;;;3.10;100.00;97155.84;5100202;28;20397;-82
2023/12/09 03:57:30;;;;;;;16.17;8.68;;;;;;;3.04;100.00;97159.31;5100194;28;20410;-80
2023/12/09 03:59:56;;;;;;;17.30;9.40;;;;;;;2.96;100.00;97159.56;5100454;28;20389;-79
2023/12/09 04:02:22;;;;;;;16.17;8.90;;;;;;;2.90;100.00;97162.19;5100450;28;20396;-80
2023/12/09 04:04:48;;;;;;;16.50;9.43;;;;;;;2.84;100.00;97166.44;5100092;28;20514;-79
2023/12/09 04:07:16;;;;;;;19.27;9.38;;;;;;;2.78;100.00;97163.88;5100133;28;20394;-80
2023/12/09 04:09:42;;;;;;;22.08;11.05;;;;;;;2.74;100.00;97163.47;5099667;28;20394;-80
2023/12/09 04:12:09;;;;;;;23.60;10.93;;;;;;;2.72;100.00;97158.44;5099654;28;20441;-81
2023/12/09 04:14:35;;;;;;;21.60;10.00;;;;;;;2.70;100.00;97152.63;5099556;28;20386;-80
2023/12/09 04:17:01;;;;;;;20.23;10.52;;;;;;;2.72;100.00;97157.63;5100110;28;20754;-80
2023/12/09 04:19:27;;;;;;;24.27;11.23;;;;;;;2.74;100.00;97158.25;5099944;28;20477;-80
2023/12/09 04:21:53;;;;;;;22.75;10.98;;;;;;;2.78;100.00;97169.09;5100422;28;20390;-80
2023/12/09 04:24:21;;;;;;;22.67;10.87;;;;;;;2.81;100.00;97181.72;5099770;28;20386;-80
2023/12/09 04:26:47;;;;;;;25.10;11.98;;;;;;;2.85;100.00;97177.72;5099923;28;20429;-79
2023/12/09 04:29:13;;;;;;;25.75;11.15;;;;;;;2.90;100.00;97176.06;5099482;28;20398;-80
2023/12/09 04:31:39;;;;;;;22.17;10.73;;;;;;;2.96;100.00;97193.53;5101847;28;20552;-80
2023/12/09 04:34:05;;;;;;;18.70;10.00;;;;;;;3.02;100.00;97187.47;5102621;28;20429;-80
2023/12/09 04:36:32;;;;;;;18.70;9.57;;;;;;;3.07;100.00;97192.09;5105647;28;20434;-81
2023/12/09 04:38:58;;;;;;;21.30;9.65;;;;;;;3.16;100.00;97195.28;5100328;28;20424;-80
2023/12/09 04:41:25;;;;;;;21.10;10.43;;;;;;;3.18;100.00;97196.66;5099083;28;20406;-81
2023/12/09 04:43:51;;;;;;;20.98;10.35;;;;;;;3.26;100.00;97193.81;5100121;28;20400;-80
2023/12/09 04:46:18;;;;;;;24.88;12.05;;;;;;;3.35;100.00;97189.94;5099692;28;20389;-80
2023/12/09 04:48:44;;;;;;;23.77;11.60;;;;;;;3.44;100.00;97185.25;5100947;28;20424;-81
2023/12/09 04:51:10;;;;;;;22.42;10.98;;;;;;;3.49;100.00;97188.84;5100372;28;20489;-81
2023/12/09 04:53:36;;;;;;;23.48;12.05;;;;;;;3.55;100.00;97195.03;5104664;28;20395;-81
2023/12/09 04:56:03;;;;;;;22.33;11.10;;;;;;;3.60;100.00;97186.56;5108042;28;20394;-81
2023/12/09 04:58:30;;;;;;;18.38;9.75;;;;;;;3.65;100.00;97199.81;5108159;28;20418;-81
2023/12/09 05:00:57;;;;;;;24.05;11.13;;;;;;;3.67;100.00;97187.34;5108042;28;20393;-81
2023/12/09 05:03:23;;;;;;;21.30;10.45;;;;;;;3.74;100.00;97188.88;5103138;28;20459;-80
2023/12/09 05:05:49;;;;;;;22.25;10.73;;;;;;;3.76;100.00;97183.44;5100462;28;20394;-81
2023/12/09 05:08:15;;;;;;;23.50;10.20;;;;;;;3.76;100.00;97180.84;5100321;28;20397;-80
2023/12/09 05:10:41;;;;;;;22.60;10.88;;;;;;;3.78;100.00;97170.94;5099853;28;20401;-80
2023/12/09 05:13:08;;;;;;;19.58;10.02;;;;;;;3.80;100.00;97172.31;5099764;28;20409;-80
2023/12/09 05:15:35;;;;;;;16.83;9.07;;;;;;;3.81;100.00;97170.50;5098668;28;20394;-80
2023/12/09 05:18:02;;;;;;;14.70;8.20;;;;;;;3.80;100.00;97166.28;5098720;28;20418;-80
2023/12/09 05:20:28;;;;;;;15.48;7.75;;;;;;;3.78;100.00;97169.13;5080340;28;20920;-80
2023/12/09 05:22:56;;;;;;;22.47;9.13;;;;;;;3.77;100.00;97166.69;5098825;28;20573;-80
2023/12/09 05:25:22;;;;;;;17.17;9.20;;;;;;;3.78;100.00;97170.94;5098523;28;20433;-80
2023/12/09 05:27:48;;;;;;;15.68;8.75;;;;;;;3.79;100.00;97159.44;5098599;28;20401;-80
2023/12/09 05:30:15;;;;;;;16.50;8.18;;;;;;;3.80;100.00;97161.06;5079957;28;20456;-80
2023/12/09 05:32:42;;;;;;;17.35;8.82;;;;;;;3.78;100.00;97149.97;5098766;28;20749;-80
2023/12/09 05:35:10;;;;;;;14.77;7.88;;;;;;;3.78;100.00;97148.16;5098329;28;20394;-81
2023/12/09 05:37:36;;;;;;;17.80;8.15;;;;;;;3.80;100.00;97148.75;5098178;28;20402;-79
2023/12/09 05:40:03;;;;;;;12.85;7.20;;;;;;;3.81;100.00;97139.09;5097880;28;20400;-80
2023/12/09 05:42:30;;;;;;;16.73;7.57;;;;;;;3.77;100.00;97136.09;5098699;28;20394;-80
2023/12/09 05:44:56;;;;;;;11.63;6.63;;;;;;;3.74;100.00;97136.53;5098344;28;20394;-80
2023/12/09 05:47:22;;;;;;;13.73;6.97;;;;;;;3.73;100.00;97128.88;5079514;28;20882;-80
2023/12/09 05:49:50;;;;;;;11.95;6.88;;;;;;;3.69;100.00;97135.56;5099095;28;20402;-81
2023/12/09 05:52:16;;;;;;;25.73;9.70;;;;;;;3.66;100.00;97136.78;5099599;28;20416;-82
2023/12/09 05:54:42;;;;;;;14.00;6.72;;;;;;;3.69;100.00;97130.31;5097908;28;20781;-81
2023/12/09 05:57:08;;;;;;;9.68;6.25;;;;;;;3.69;100.00;97132.94;5097377;28;20414;-79
2023/12/09 05:59:35;;;;;;;9.75;5.88;;;;;;;3.67;100.00;97133.16;5096486;28;20390;-80
2023/12/09 06:02:01;;;;;;;9.95;5.78;;;;;;;3.67;100.00;97134.97;5097682;28;20433;-80
2023/12/09 06:04:27;;;;;;;11.18;5.68;;;;;;;3.64;100.00;97130.16;5097610;28;20854;-80
2023/12/09 06:06:54;;;;;;;10.77;5.30;;;;;;;3.61;100.00;97131.38;5097474;28;20465;-80
2023/12/09 06:09:20;;;;;;;8.57;5.65;;;;;;;3.60;100.00;97129.00;5097599;28;20394;-80
2023/12/09 06:11:47;;;;;;;8.07;4.90;;;;;;;3.58;100.00;97133.63;5099779;28;20400;-81
2023/12/09 06:14:13;;;;;;;6.90;4.82;;;;;;;3.55;100.00;97132.25;5099423;28;20874;-80
2023/12/09 06:16:39;;;;;;;7.65;5.20;;;;;;;3.55;100.00;97126.19;5096932;28;20907;-79
2023/12/09 06:19:05;;;;;;;8.55;4.82;;;;;;;3.52;100.00;97124.03;5096652;28;20936;-82
2023/12/09 06:21:31;;;;;;;6.43;4.80;;;;;;;3.50;100.00;97125.03;5096409;28;20390;-82
2023/12/09 06:23:58;;;;;;;11.73;6.05;;;;;;;3.52;100.00;97132.69;5096423;28;20394;-80
2023/12/09 06:26:25;;;;;;;7.95;5.18;;;;;;;3.55;100.00;97121.78;5080039;28;20402;-81
2023/12/09 06:28:51;;;;;;;8.93;5.07;;;;;;;3.58;100.00;97125.78;5100104;28;20901;-81
2023/12/09 06:31:17;;;;;;;11.30;5.97;;;;;;;3.61;100.00;97120.91;5112050;28;20441;-80
2023/12/09 06:33:44;;;;;;;9.38;5.70;;;;;;;3.65;100.00;97113.44;5097654;28;20398;-80
2023/12/09 06:36:10;;;;;;;17.58;7.13;;;;;;;3.68;100.00;97113.84;5100617;28;20396;-80
2023/12/09 06:38:39;;;;;;;10.60;6.00;;;;;;;3.74;100.00;97107.75;5118642;28;20462;-79
2023/12/09 06:41:07;;;;;;;10.07;5.37;;;;;;;3.77;100.00;97107.28;5117174;28;20395;-80
2023/12/09 06:43:33;;;;;;;7.60;4.85;;;;;;;3.78;100.00;97111.53;5100316;28;20401;-79
2023/12/09 06:46:00;;;;;;;7.40;4.65;;;;;;;3.79;100.00;97101.84;5105256;28;20443;-80
2023/12/09 06:48:27;;;;;;;7.80;5.30;;;;;;;3.79;100.00;97101.84;5100983;28;20794;-80
2023/12/09 06:50:54;;;;;;;9.97;5.00;;;;;;;3.79;100.00;97110.50;5102722;28;20481;-84
2023/12/09 06:53:20;;;;;;;7.90;5.00;;;;;;;3.80;100.00;97106.06;5116231;28;20402;-80
2023/12/09 06:55:47;;;;;;;10.25;5.18;;;;;;;3.80;100.00;97101.63;5118406;28;20883;-81
2023/12/09 06:58:16;;;;;;;13.60;5.78;;;;;;;3.83;100.00;97103.81;5117091;28;20437;-79
2023/12/09 07:00:42;;;;;;;11.20;5.20;;;;;;;3.87;100.00;97098.97;5120001;28;20438;-81
2023/12/09 07:03:08;;;;;;;9.23;5.07;;;;;;;3.89;100.00;97105.59;5107135;28;20402;-79
2023/12/09 07:05:34;;;;;;;5.55;4.40;;;;;;;3.90;100.00;97106.41;5101575;28;20430;-80
2023/12/09 07:08:00;;;;;;;6.97;4.10;;;;;;;3.87;100.00;97107.63;5099158;28;20398;-79
2023/12/09 07:10:26;;;;;;;9.80;4.30;;;;;;;3.82;100.00;97109.28;5104690;28;20389;-80
2023/12/09 07:12:52;;;;;;;10.13;4.90;;;;;;;3.78;100.00;97101.06;5110299;28;20405;-79
2023/12/09 07:15:20;;;;;;;11.65;4.53;;;;;;;3.75;100.00;97106.72;5086830;28;20435;-79
2023/12/09 07:17:46;;;;;;;8.10;4.70;;;;;;;3.74;100.00;97099.09;5103070;28;20766;-78
2023/12/09 07:20:13;;;;;;;7.15;4.55;;;;;;;3.73;100.00;97094.88;5094610;28;20875;-81
2023/12/09 07:22:39;;;;;;;6.32;4.13;;;;;;;3.73;100.00;97106.13;5097989;28;20398;-79
2023/12/09 07:25:06;;;;;;;10.65;5.32;;;;;;;3.74;100.00;97107.75;5102655;28;20418;-78
2023/12/09 07:27:32;;;;;;;9.30;4.90;;;;;;;3.79;100.00;97112.31;5108798;28;20467;-79
2023/12/09 07:30:00;;;;;;;14.57;5.35;;;;;;;3.81;100.00;97113.72;5076657;28;20950;-79
2023/12/09 07:32:27;;;;;;;16.27;6.03;;;;;;;3.86;100.00;97110.44;5097259;28;20969;-79
2023/12/09 07:34:54;;;;;;;12.02;4.95;;;;;;;3.87;100.00;97105.00;5097793;28;20393;-79
2023/12/09 07:37:21;;;;;;;11.40;5.03;;;;;;;3.92;100.00;97106.16;5087851;28;20406;-80
2023/12/09 07:39:48;;;;;;;21.58;6.60;;;;;;;3.91;100.00;97107.19;5095001;28;20797;-81
2023/12/09 07:42:14;;;;;;;15.93;5.25;;;;;;;3.97;100.00;97103.72;5096571;28;20804;-80
2023/12/09 07:44:40;;;;;;;14.40;5.38;;;;;;;3.97;100.00;97096.66;5094656;28;20720;-79
2023/12/09 07:47:06;;;;;;;11.48;4.80;;;;;;;4.04;100.00;97100.03;5093559;28;20395;-80
2023/12/09 07:49:34;;;;;;;10.95;4.72;;;;;;;4.06;100.00;97091.94;5095360;28;20394;-79
2023/12/09 07:52:00;;;;;;;12.52;4.38;;;;;;;4.11;100.00;97098.13;5097971;28;20396;-79
2023/12/09 07:54:27;;;;;;;5.47;3.92;;;;;;;4.17;100.00;97094.63;5097630;28;20839;-80
2023/12/09 07:56:53;;;;;;;9.60;4.63;;;;;;;4.17;100.00;97099.06;5101726;28;20398;-84
2023/12/09 07:59:19;;;;;;;13.80;5.30;;;;;;;4.14;100.00;97097.69;5106689;28;20450;-80
2023/12/09 08:01:45;;;;;;;15.30;5.47;;;;;;;4.12;100.00;97094.50;5108374;28;20394;-81
2023/12/09 08:04:11;;;;;;;9.20;4.70;;;;;;;4.15;100.00;97104.53;5107797;28;20858;-80
2023/12/09 08:06:39;;;;;;;9.02;4.40;;;;;;;4.17;100.00;97088.59;5106848;28;20488;-80
2023/12/09 08:09:06;;;;;;;19.38;5.30;;;;;;;4.15;100.00;97093.25;5104092;28;20394;-82
2023/12/09 08:11:33;;;;;;;18.30;4.93;;;;;;;4.13;100.00;97083.00;5102066;28;20426;-81
2023/12/09 08:13:59;;;;;;;8.53;4.20;;;;;;;4.16;100.00;97084.38;5097133;28;20950;-79
2023/12/09 08:16:25;;;;;;;8.68;4.22;;;;;;;4.14;100.00;97074.09;5099651;28;20398;-82
2023/12/09 08:18:51;;;;;;;8.93;4.30;;;;;;;4.18;100.00;97077.09;5099161;28;20502;-82
2023/12/09 08:21:17;;;;;;;6.93;3.88;;;;;;;4.22;100.00;97075.63;5099007;28;20397;-81
2023/12/09 08:23:44;;;;;;;11.13;4.30;;;;;;;4.24;100.00;97071.78;5097909;28;20398;-81
2023/12/09 08:26:16;;;;;;;6.70;3.90;;;;;;;4.30;100.00;97072.72;5093874;28;20412;-80
2023/12/09 08:28:42;;;;;;;4.40;3.35;;;;;;;4.36;100.00;97082.34;5099565;28;20432;-80
2023/12/09 08:31:08;;;;;;;8.25;3.20;;;;;;;4.37;100.00;97072.66;5099034;28;20401;-81
2023/12/09 08:33:34;;;;;;;4.57;2.90;;;;;;;4.35;100.00;97083.38;5098716;28;20394;-81
2023/12/09 08:36:01;;;;;;;6.72;3.40;;;;;;;4.36;100.00;97073.69;5098666;28;20398;-81
2023/12/09 08:38:27;;;;;;;5.38;3.33;;;;;;;4.38;100.00;97066.41;5100081;28;20410;-79
2023/12/09 08:40:55;;;;;;;6.32;3.00;;;;;;;4.43;100.00;97069.97;5100314;28;20398;-81
2023/12/09 08:43:21;;;;;;;5.82;2.92;;;;;;;4.53;100.00;97069.44;5100652;28;20394;-81
2023/12/09 08:45:47;;;;;;;5.85;2.97;;;;;;;4.65;100.00;97065.88;5099017;28;20416;-80
2023/12/09 08:48:13;;;;;;;5.20;2.85;;;;;;;4.77;100.00;97063.28;5098388;28;20394;-81
2023/12/09 08:50:39;;;;;;;4.03;2.70;;;;;;;4.88;100.00;97073.03;5099166;28;20484;-79
2023/12/09 08:53:05;;;;;;;5.05;2.25;;;;;;;4.96;100.00;97072.72;5099669;28;20414;-80
2023/12/09 08:55:31;;;;;;;7.68;3.13;;;;;;;5.02;100.00;97078.91;5098606;28;20394;-81
2023/12/09 08:57:59;;;;;;;7.88;3.60;;;;;;;5.05;100.00;97074.00;5097044;28;20461;-79
2023/12/09 09:00:26;;;;;;;4.43;2.90;;;;;;;5.16;100.00;97074.25;5099611;28;20390;-80
2023/12/09 09:02:55;;;;;;;3.23;2.50;;;;;;;5.28;100.00;97064.59;5103836;28;20783;-81
2023/12/09 09:05:22;;;;;;;3.83;2.50;;;;;;;5.40;100.00;97049.69;5102213;28;20481;-78
2023/12/09 09:07:48;;;;;;;3.10;2.60;;;;;;;5.48;100.00;97054.59;5103408;28;20398;-79
2023/12/09 09:10:14;;;;;;;4.20;2.30;;;;;;;5.53;100.00;97044.22;5102542;28;20402;-80
2023/12/09 09:12:43;;;;;;;5.50;2.67;;;;;;;5.57;100.00;97049.78;5106021;28;20829;-80
2023/12/09 09:15:10;;;;;;;5.35;2.92;;;;;;;5.53;100.00;97046.84;5097153;28;20484;-80
2023/12/09 09:17:36;;;;;;;12.27;3.60;;;;;;;5.48;100.00;97045.94;5097788;28;20440;-80
2023/12/09 09:20:04;;;;;;;8.48;3.40;;;;;;;5.39;100.00;97032.34;5097655;28;20743;-80
2023/12/09 09:22:31;;;;;;;4.73;2.90;;;;;;;5.45;100.00;97039.28;5099688;28;20464;-80
2023/12/09 09:24:58;;;;;;;9.18;3.58;;;;;;;5.41;100.00;97048.66;5099134;28;20500;-80
2023/12/09 09:27:24;;;;;;;5.87;2.73;;;;;;;5.48;100.00;97051.19;5098707;28;20791;-80
2023/12/09 09:29:50;;;;;;;5.18;2.70;;;;;;;5.55;100.00;97050.03;5098588;28;20398;-81
2023/12/09 09:32:18;;;;;;;6.10;3.10;;;;;;;5.58;100.00;97049.56;5099096;28;20394;-81
2023/12/09 09:34:44;;;;;;;9.52;3.95;;;;;;;5.60;100.00;97049.34;5099727;28;20394;-80
2023/12/09 09:37:10;;;;;;;8.82;3.80;;;;;;;5.65;100.00;97042.38;5098528;28;20416;-81
2023/12/09 09:39:36;;;;;;;12.25;4.03;;;;;;;5.51;100.00;97029.72;5100420;28;20393;-80
2023/12/09 09:42:12;;;;;;;6.57;3.50;;;;;;;5.60;100.00;97020.47;5101065;28;20406;-81
2023/12/09 09:44:47;;;;;;;11.50;4.20;;;;;;;5.50;100.00;97014.97;5102239;28;20401;-80
2023/12/09 09:47:17;;;;;;;11.02;4.20;;;;;;;5.47;100.00;97010.19;5097329;28;20398;-80
2023/12/09 09:49:46;;;;;;;12.82;4.72;;;;;;;5.42;100.00;97003.00;5098491;28;20390;-80
2023/12/09 09:52:14;;;;;;;9.23;4.10;;;;;;;5.47;100.00;97004.94;5099206;28;20386;-80
2023/12/09 09:54:42;;;;;;;7.45;3.53;;;;;;;5.51;100.00;97019.19;5097569;28;20394;-80
2023/12/09 09:57:09;;;;;;;8.13;3.70;;;;;;;5.40;100.00;97013.75;5097509;28;20416;-80
2023/12/09 09:59:35;;;;;;;6.30;3.50;;;;;;;5.47;100.00;97016.25;5106686;28;20413;-80
2023/12/09 10:02:06;;;;;;;4.85;3.30;;;;;;;5.54;100.00;97003.00;5114691;28;20428;-82
2023/12/09 10:04:33;;;;;;;9.85;4.00;;;;;;;5.52;100.00;97003.22;5103646;28;20393;-80
2023/12/09 10:07:03;;;;;;;14.18;4.43;;;;;;;5.48;100.00;96999.47;5102834;28;20390;-80
2023/12/09 10:09:29;;;;;;;9.73;4.40;;;;;;;5.51;100.00;96995.56;5101894;28;20394;-80
2023/12/09 10:11:55;;;;;;;9.82;3.45;;;;;;;5.55;100.00;96992.28;5102132;28;20784;-80
2023/12/09 10:14:23;;;;;;;9.57;3.67;;;;;;;5.65;100.00;96989.88;5101635;28;20393;-80
2023/12/09 10:16:50;;;;;;;6.20;3.28;;;;;;;5.84;100.00;96987.94;5102865;28;20394;-80
2023/12/09 10:19:17;;;;;;;6.13;3.20;;;;;;;5.96;100.00;96977.41;5100503;28;20418;-79
2023/12/09 10:21:43;;;;;;;11.10;3.67;;;;;;;5.95;100.00;96963.47;5102577;28;20397;-80
2023/12/09 10:24:11;;;;;;;5.78;3.15;;;;;;;5.93;100.00;96952.44;5101670;28;20749;-79
2023/12/09 10:26:38;;;;;;;4.50;2.92;;;;;;;5.98;100.00;96946.47;5101421;28;20401;-81
2023/12/09 10:29:06;;;;;;;4.43;2.80;;;;;;;6.00;100.00;96936.53;5102093;28;20475;-80
2023/12/09 10:31:35;;;;;;;4.57;2.85;;;;;;;6.05;100.00;96944.50;5101837;28;20454;-81
2023/12/09 10:34:02;;;;;;;9.35;3.78;;;;;;;6.01;100.00;96944.19;5101981;28;20394;-80
2023/12/09 10:36:30;;;;;;;4.95;3.28;;;;;;;6.07;100.00;96945.88;5102509;28;20398;-80
2023/12/09 10:38:56;;;;;;;9.95;3.80;;;;;;;6.06;100.00;96919.84;5102025;28;20413;-80
2023/12/09 10:41:25;;;;;;;7.78;3.67;;;;;;;6.20;100.00;96921.16;5101380;28;20402;-80
2023/12/09 10:43:56;;;;;;;9.68;3.50;;;;;;;6.20;100.00;96916.69;5103753;28;20809;-80
2023/12/09 10:46:23;;;;;;;6.28;3.20;;;;;;;6.29;100.00;96911.88;5103653;28;20394;-79
2023/12/09 10:48:51;;;;;;;4.82;2.85;;;;;;;6.30;100.00;96902.97;5103711;28;20398;-80
2023/12/09 10:51:18;;;;;;;5.07;2.78;;;;;;;6.37;100.00;96900.19;5102455;28;20482;-81
2023/12/09 10:53:45;;;;;;;4.30;2.75;;;;;;;6.45;100.00;96890.09;5102109;28;20393;-81
2023/12/09 10:56:11;;;;;;;7.35;3.08;;;;;;;6.42;100.00;96884.50;5102005;28;20390;-80
2023/12/09 10:58:40;;;;;;;9.63;3.45;;;;;;;6.40;100.00;96883.91;5102600;28;20413;-80
2023/12/09 11:01:08;;;;;;;5.63;3.00;;;;;;;6.49;100.00;96883.31;5105515;28;20402;-80
2023/12/09 11:03:35;;;;;;;5.22;3.00;;;;;;;6.63;100.00;96875.09;5096287;28;20467;-81
2023/12/09 11:06:04;;;;;;;3.70;2.80;;;;;;;6.79;100.00;96867.22;5097423;28;20406;-79
2023/12/09 11:08:30;;;;;;;7.78;3.40;;;;;;;7.06;100.00;96856.88;5094801;28;20913;-80
2023/12/09 11:10:57;;;;;;;24.58;8.35;;;;;;;7.24;100.00;96853.16;5092278;28;20404;-81
2023/12/09 11:13:24;;;;;;;15.35;5.60;;;;;;;7.54;100.00;96853.53;5094809;28;20414;-80
2023/12/09 11:16:08;;;;;;;12.48;5.18;;;;;;;7.76;100.00;96835.09;5096554;28;20767;-82
2023/12/09 11:18:35;;;;;;;7.55;3.90;;;;;;;7.89;100.00;96823.41;5091941;28;20963;-80
2023/12/09 11:21:01;;;;;;;5.85;3.30;;;;;;;7.82;100.00;96813.03;5096452;28;20404;-82
2023/12/09 11:23:28;;;;;;;4.95;3.17;;;;;;;7.70;100.00;96802.66;5097459;28;20444;-79
2023/12/09 11:25:55;;;;;;;6.13;3.35;;;;;;;7.42;100.00;96789.69;5099984;28;20392;-80